createdAt,value
2023-03-15T00:01:50.987Z,0.00
2023-03-15T00:04:17.961Z,-0.10
2023-03-15T00:06:44.846Z,-0.10
2023-03-15T00:09:13.287Z,-0.10
2023-03-15T00:11:40.230Z,-0.20
2023-03-15T00:14:07.158Z,-0.20
2023-03-15T00:16:34.456Z,-0.20
2023-03-15T00:19:01.473Z,-0.30
2023-03-15T00:21:29.946Z,-0.40
2023-03-15T00:23:57.418Z,-0.30
2023-03-15T00:26:24.374Z,-0.40
2023-03-15T00:28:51.636Z,-0.40
2023-03-15T00:31:21.701Z,-0.40
2023-03-15T00:33:49.161Z,-0.50
2023-03-15T00:36:16.536Z,-0.50
2023-03-15T00:38:46.874Z,-0.60
2023-03-15T00:41:15.915Z,-0.60
2023-03-15T00:43:43.859Z,-0.60
2023-03-15T00:46:11.963Z,-0.60
2023-03-15T00:48:39.119Z,-0.60
2023-03-15T00:51:21.500Z,-0.60
2023-03-15T00:53:49.987Z,-0.70
2023-03-15T00:56:26.282Z,-0.60
2023-03-15T00:58:53.866Z,-0.60
2023-03-15T01:01:24.250Z,-0.70
2023-03-15T01:03:52.058Z,-0.70
2023-03-15T01:06:22.736Z,-0.80
2023-03-15T01:08:51.472Z,-0.80
2023-03-15T01:11:24.336Z,-0.80
2023-03-15T01:13:52.775Z,-0.80
2023-03-15T01:16:20.502Z,-0.90
2023-03-15T01:18:48.100Z,-0.90
2023-03-15T01:21:16.200Z,-1.00
2023-03-15T01:23:43.253Z,-0.80
2023-03-15T01:26:13.977Z,-0.90
2023-03-15T01:28:41.227Z,-0.90
2023-03-15T01:31:17.070Z,-0.90
2023-03-15T01:33:43.995Z,-1.00
2023-03-15T01:36:11.686Z,-1.00
2023-03-15T01:38:38.882Z,-1.10
2023-03-15T01:41:06.296Z,-1.00
2023-03-15T01:43:34.360Z,-1.10
2023-03-15T01:46:17.482Z,-1.20
2023-03-15T01:48:54.832Z,-1.10
2023-03-15T01:51:34.831Z,-1.20
2023-03-15T01:54:15.570Z,-1.20
2023-03-15T01:56:48.559Z,-1.20
2023-03-15T01:59:27.320Z,-1.30
2023-03-15T02:01:55.567Z,-1.20
2023-03-15T02:04:33.532Z,-1.30
2023-03-15T02:07:02.780Z,-1.30
2023-03-15T02:09:41.777Z,-1.30
2023-03-15T02:12:10.862Z,-1.30
2023-03-15T02:14:38.433Z,-1.20
2023-03-15T02:17:06.588Z,-1.20
2023-03-15T02:19:52.071Z,-1.20
2023-03-15T02:22:46.076Z,-1.20
2023-03-15T02:25:39.326Z,-1.30
2023-03-15T02:28:08.241Z,-1.20
2023-03-15T02:30:36.003Z,-1.30
2023-03-15T02:33:06.422Z,-1.30
2023-03-15T02:35:33.861Z,-1.20
2023-03-15T02:38:02.757Z,-1.20
2023-03-15T02:40:30.948Z,-1.30
2023-03-15T02:43:20.429Z,-1.40
2023-03-15T02:45:48.233Z,-1.30
2023-03-15T02:48:16.786Z,-1.30
2023-03-15T02:50:43.911Z,-1.30
2023-03-15T02:53:12.400Z,-1.40
2023-03-15T02:55:39.689Z,-1.40
2023-03-15T02:58:06.756Z,-1.50
2023-03-15T03:00:33.786Z,-1.50
2023-03-15T03:03:00.886Z,-1.50
2023-03-15T03:05:28.032Z,-1.50
2023-03-15T03:07:55.195Z,-1.50
2023-03-15T03:10:23.123Z,-1.50
2023-03-15T03:12:53.623Z,-1.50
2023-03-15T03:15:21.408Z,-1.50
2023-03-15T03:17:48.511Z,-1.50
2023-03-15T03:20:15.868Z,-1.60
2023-03-15T03:22:44.916Z,-1.50
2023-03-15T03:25:12.781Z,-1.60
2023-03-15T03:27:41.032Z,-1.60
2023-03-15T03:30:11.762Z,-1.60
2023-03-15T03:32:41.018Z,-1.60
2023-03-15T03:35:08.815Z,-1.60
2023-03-15T03:37:36.014Z,-1.60
2023-03-15T03:40:07.845Z,-1.70
2023-03-15T03:42:35.585Z,-1.70
2023-03-15T03:45:02.518Z,-1.60
2023-03-15T03:47:29.573Z,-1.70
2023-03-15T03:49:56.417Z,-1.80
2023-03-15T03:52:23.676Z,-1.70
2023-03-15T03:54:50.958Z,-1.60
2023-03-15T03:57:18.000Z,-1.60
2023-03-15T03:59:44.952Z,-1.70
2023-03-15T04:02:11.878Z,-1.70
2023-03-15T04:04:41.446Z,-1.70
2023-03-15T04:07:08.516Z,-1.70
2023-03-15T04:09:37.583Z,-1.80
2023-03-15T04:12:05.610Z,-1.70
2023-03-15T04:14:33.106Z,-1.70
2023-03-15T04:16:59.975Z,-1.70
2023-03-15T04:19:27.281Z,-1.70
2023-03-15T04:21:54.148Z,-1.60
2023-03-15T04:24:21.120Z,-1.60
2023-03-15T04:26:48.086Z,-1.50
2023-03-15T04:29:15.683Z,-1.60
2023-03-15T04:31:43.491Z,-1.50
2023-03-15T04:34:10.565Z,-1.50
2023-03-15T04:36:37.473Z,-1.60
2023-03-15T04:39:07.388Z,-1.70
2023-03-15T04:41:34.936Z,-1.70
2023-03-15T04:44:05.489Z,-1.50
2023-03-15T04:46:34.039Z,-1.60
2023-03-15T04:49:01.918Z,-1.60
2023-03-15T04:51:28.916Z,-1.60
2023-03-15T04:53:55.881Z,-1.60
2023-03-15T04:56:22.871Z,-1.50
2023-03-15T04:58:50.008Z,-1.50
2023-03-15T05:01:17.352Z,-1.40
2023-03-15T05:03:44.641Z,-1.40
2023-03-15T05:06:11.823Z,-1.50
2023-03-15T05:08:38.723Z,-1.50
2023-03-15T05:11:06.034Z,-1.50
2023-03-15T05:13:33.028Z,-1.50
2023-03-15T05:15:59.944Z,-1.60
2023-03-15T05:18:26.984Z,-1.50
2023-03-15T05:20:55.947Z,-1.60
2023-03-15T05:23:24.536Z,-1.60
2023-03-15T05:25:54.841Z,-1.60
2023-03-15T05:28:26.225Z,-1.50
2023-03-15T05:30:53.599Z,-1.50
2023-03-15T05:33:21.063Z,-1.50
2023-03-15T05:35:48.886Z,-1.50
2023-03-15T05:38:16.035Z,-1.50
2023-03-15T05:40:47.081Z,-1.40
2023-03-15T05:43:14.380Z,-1.40
2023-03-15T05:45:41.498Z,-1.40
2023-03-15T05:48:08.456Z,-1.50
2023-03-15T05:50:35.330Z,-1.50
2023-03-15T05:53:02.178Z,-1.40
2023-03-15T05:55:29.117Z,-1.50
2023-03-15T05:57:56.113Z,-1.40
2023-03-15T06:00:23.432Z,-1.40
2023-03-15T06:02:50.395Z,-1.30
2023-03-15T06:05:17.382Z,-1.30
2023-03-15T06:07:44.806Z,-1.30
2023-03-15T06:10:11.985Z,-1.30
2023-03-15T06:12:38.881Z,-1.30
2023-03-15T06:15:07.191Z,-1.20
2023-03-15T06:17:34.244Z,-1.20
2023-03-15T06:20:01.216Z,-1.10
2023-03-15T06:22:28.538Z,-1.00
2023-03-15T06:24:55.461Z,-1.00
2023-03-15T06:27:22.515Z,-0.90
2023-03-15T06:29:50.697Z,-0.90
2023-03-15T06:32:17.737Z,-0.90
2023-03-15T06:34:44.720Z,-0.90
2023-03-15T06:37:16.324Z,-0.80
2023-03-15T06:39:47.162Z,-0.90
2023-03-15T06:42:14.592Z,-0.90
2023-03-15T06:44:41.983Z,-0.80
2023-03-15T06:47:10.172Z,-0.80
2023-03-15T06:49:37.540Z,-0.70
2023-03-15T06:52:05.349Z,-0.70
2023-03-15T06:54:32.490Z,-0.50
2023-03-15T06:56:59.928Z,-0.50
2023-03-15T06:59:26.887Z,-0.50
2023-03-15T07:01:53.804Z,-0.40
2023-03-15T07:04:21.650Z,-0.40
2023-03-15T07:06:48.608Z,-0.30
2023-03-15T07:09:15.577Z,-0.20
2023-03-15T07:11:42.557Z,-0.20
2023-03-15T07:14:09.427Z,-0.20
2023-03-15T07:16:36.313Z,-0.10
2023-03-15T07:19:03.568Z,-0.10
2023-03-15T07:21:30.767Z,-0.10
2023-03-15T07:23:57.668Z,0.00
2023-03-15T07:26:24.505Z,-0.10
2023-03-15T07:28:51.449Z,0.00
2023-03-15T07:31:18.315Z,0.10
2023-03-15T07:33:45.163Z,0.20
2023-03-15T07:36:12.114Z,0.30
2023-03-15T07:38:41.298Z,0.30
2023-03-15T07:41:09.071Z,0.30
2023-03-15T07:43:36.029Z,0.30
2023-03-15T07:46:02.891Z,0.30
2023-03-15T07:48:31.572Z,0.30
2023-03-15T07:50:58.506Z,0.50
2023-03-15T07:53:25.708Z,0.40
2023-03-15T07:55:52.804Z,0.50
2023-03-15T07:58:20.464Z,0.50
2023-03-15T08:00:47.731Z,0.50
2023-03-15T08:03:14.713Z,0.50
2023-03-15T08:05:41.665Z,0.50
2023-03-15T08:08:08.573Z,0.50
2023-03-15T08:10:35.617Z,0.50
2023-03-15T08:13:02.519Z,0.60
2023-03-15T08:15:29.676Z,0.60
2023-03-15T08:17:56.516Z,0.60
2023-03-15T08:20:23.473Z,0.60
2023-03-15T08:22:51.606Z,0.60
2023-03-15T08:25:21.960Z,0.60
2023-03-15T08:27:49.439Z,0.70
2023-03-15T08:30:17.651Z,0.80
2023-03-15T08:32:46.860Z,1.00
2023-03-15T08:35:16.072Z,0.90
2023-03-15T08:37:47.860Z,1.00
2023-03-15T08:40:16.556Z,1.00
2023-03-15T08:42:43.752Z,1.10
2023-03-15T08:45:11.404Z,1.10
2023-03-15T08:47:38.414Z,1.20
2023-03-15T08:50:08.534Z,1.10
2023-03-15T08:52:35.514Z,1.20
2023-03-15T08:55:03.931Z,1.30
2023-03-15T08:57:32.963Z,1.40
2023-03-15T09:00:01.860Z,1.30
2023-03-15T09:02:29.416Z,1.40
2023-03-15T09:04:56.357Z,1.30
2023-03-15T09:07:23.291Z,1.40
2023-03-15T09:09:50.219Z,1.50
2023-03-15T09:12:17.316Z,1.50
2023-03-15T09:14:44.651Z,1.50
2023-03-15T09:17:11.869Z,1.60
2023-03-15T09:19:39.498Z,1.70
2023-03-15T09:22:16.824Z,1.70
2023-03-15T09:24:52.613Z,1.80
2023-03-15T09:27:19.869Z,1.80
2023-03-15T09:29:46.779Z,1.90
2023-03-15T09:32:13.603Z,2.00
2023-03-15T09:34:42.252Z,2.10
2023-03-15T09:37:09.957Z,2.10
2023-03-15T09:39:36.827Z,2.10
2023-03-15T09:42:08.369Z,2.10
2023-03-15T09:44:46.063Z,2.20
2023-03-15T09:48:14.401Z,2.20
2023-03-15T09:50:57.120Z,2.30
2023-03-15T09:53:47.652Z,2.40
2023-03-15T09:56:28.118Z,2.40
2023-03-15T09:58:59.440Z,2.50
2023-03-15T10:01:35.507Z,2.60
2023-03-15T10:04:29.749Z,2.50
2023-03-15T10:06:59.785Z,2.70
2023-03-15T10:09:33.118Z,2.60
2023-03-15T10:12:10.288Z,2.60
2023-03-15T10:14:55.288Z,2.70
2023-03-15T10:17:29.649Z,2.80
2023-03-15T10:20:03.410Z,2.80
2023-03-15T10:22:39.800Z,2.80
2023-03-15T10:25:26.201Z,2.80
2023-03-15T10:28:24.513Z,2.80
2023-03-15T10:30:52.352Z,2.90
2023-03-15T10:33:31.965Z,2.90
2023-03-15T10:36:10.689Z,3.00
2023-03-15T10:38:39.407Z,3.00
2023-03-15T10:41:07.856Z,3.00
2023-03-15T10:43:37.524Z,3.00
2023-03-15T10:46:23.414Z,3.10
2023-03-15T10:49:08.962Z,3.20
2023-03-15T10:51:53.656Z,3.20
2023-03-15T10:54:24.159Z,3.20
2023-03-15T10:57:14.312Z,3.20
2023-03-15T10:59:57.802Z,3.20
2023-03-15T11:02:25.905Z,3.20
2023-03-15T11:05:17.631Z,3.30
2023-03-15T11:07:56.442Z,3.30
2023-03-15T11:10:26.128Z,3.30
2023-03-15T11:13:28.984Z,3.40
2023-03-15T11:16:13.824Z,3.40
2023-03-15T11:18:48.744Z,3.50
2023-03-15T11:21:17.700Z,3.50
2023-03-15T11:23:47.959Z,3.50
2023-03-15T11:26:32.961Z,3.50
2023-03-15T11:29:04.690Z,3.60
2023-03-15T11:31:32.034Z,3.60
2023-03-15T11:34:38.667Z,3.60
2023-03-15T11:37:28.480Z,3.70
2023-03-15T11:40:12.008Z,3.70
2023-03-15T11:42:56.938Z,3.70
2023-03-15T11:45:53.616Z,3.70
2023-03-15T11:48:24.822Z,3.70
2023-03-15T11:50:56.038Z,3.80
2023-03-15T11:53:28.034Z,3.80
2023-03-15T11:55:55.023Z,3.80
2023-03-15T11:58:42.566Z,3.80
2023-03-15T12:01:24.141Z,3.90
2023-03-15T12:03:51.480Z,3.90
2023-03-15T12:06:21.014Z,4.00
2023-03-15T12:08:55.856Z,4.00
2023-03-15T12:11:22.828Z,4.00
2023-03-15T12:14:01.758Z,4.10
2023-03-15T12:16:31.336Z,4.10
2023-03-15T12:18:59.732Z,4.10
2023-03-15T12:21:33.243Z,4.10
2023-03-15T12:24:06.633Z,4.10
2023-03-15T12:26:46.990Z,4.20
2023-03-15T12:29:20.120Z,4.20
2023-03-15T12:31:54.776Z,4.20
2023-03-15T12:34:47.660Z,4.20
2023-03-15T12:37:32.989Z,4.20
2023-03-15T12:40:28.488Z,4.30
2023-03-15T12:42:57.397Z,4.40
2023-03-15T12:45:45.492Z,4.50
2023-03-15T12:48:13.131Z,4.40
2023-03-15T12:50:46.031Z,4.40
2023-03-15T12:53:38.414Z,4.40
2023-03-15T12:56:42.028Z,4.40
2023-03-15T12:59:35.495Z,4.40
2023-03-15T13:02:04.045Z,4.50
2023-03-15T13:04:31.860Z,4.60
2023-03-15T13:07:18.317Z,4.60
2023-03-15T13:10:24.948Z,4.70
2023-03-15T13:13:00.755Z,4.70
2023-03-15T13:15:42.914Z,4.60
2023-03-15T13:18:22.301Z,4.60
2023-03-15T13:20:51.937Z,4.60
2023-03-15T13:23:42.759Z,4.50
2023-03-15T13:26:26.200Z,4.60
2023-03-15T13:29:06.506Z,4.60
2023-03-15T13:31:33.956Z,4.60
2023-03-15T13:34:24.942Z,4.60
2023-03-15T13:36:57.635Z,4.70
2023-03-15T13:39:29.066Z,4.80
2023-03-15T13:42:17.133Z,4.80
2023-03-15T13:44:44.054Z,4.70
2023-03-15T13:47:24.442Z,4.70
2023-03-15T13:49:54.080Z,4.70
2023-03-15T13:52:21.120Z,4.80
2023-03-15T13:54:48.618Z,4.80
2023-03-15T13:57:22.799Z,4.70
2023-03-15T13:59:59.839Z,4.80
2023-03-15T14:02:38.393Z,4.80
2023-03-15T14:05:11.275Z,4.80
2023-03-15T14:07:41.812Z,4.60
2023-03-15T14:10:21.192Z,4.60
2023-03-15T14:12:48.433Z,4.60
2023-03-15T14:15:35.379Z,4.50
2023-03-15T14:18:24.649Z,4.50
2023-03-15T14:21:05.819Z,4.50
2023-03-15T14:23:35.665Z,4.40
2023-03-15T14:26:10.664Z,4.50
2023-03-15T14:28:38.389Z,4.50
2023-03-15T14:31:06.012Z,4.60
2023-03-15T14:33:42.706Z,4.60
2023-03-15T14:36:31.245Z,4.60
2023-03-15T14:38:59.196Z,4.60
2023-03-15T14:41:31.431Z,4.60
2023-03-15T14:43:58.718Z,4.60
2023-03-15T14:46:25.900Z,4.60
2023-03-15T14:48:52.905Z,4.60
2023-03-15T14:51:21.509Z,4.60
2023-03-15T14:53:51.737Z,4.60
2023-03-15T14:56:19.894Z,4.60
2023-03-15T14:58:47.072Z,4.60
2023-03-15T15:01:17.961Z,4.50
2023-03-15T15:03:58.357Z,4.60
2023-03-15T15:06:27.188Z,4.60
2023-03-15T15:08:57.407Z,4.70
2023-03-15T15:11:25.045Z,4.60
2023-03-15T15:13:52.317Z,4.60
2023-03-15T15:16:19.418Z,4.60
2023-03-15T15:18:46.655Z,4.50
2023-03-15T15:21:27.117Z,4.60
2023-03-15T15:23:58.929Z,4.60
2023-03-15T15:26:29.075Z,4.60
2023-03-15T15:28:56.737Z,4.60
2023-03-15T15:31:25.708Z,4.60
2023-03-15T15:33:55.903Z,4.50
2023-03-15T15:36:26.635Z,4.50
2023-03-15T15:38:54.014Z,4.50
2023-03-15T15:41:26.583Z,4.50
2023-03-15T15:43:53.870Z,4.50
2023-03-15T15:46:20.883Z,4.40
2023-03-15T15:48:47.977Z,4.30
2023-03-15T15:51:21.401Z,4.40
2023-03-15T15:53:48.564Z,4.30
2023-03-15T15:56:15.916Z,4.20
2023-03-15T15:58:44.415Z,4.30
2023-03-15T16:01:16.397Z,4.30
2023-03-15T16:03:43.586Z,4.20
2023-03-15T16:06:19.168Z,4.20
2023-03-15T16:08:47.815Z,4.10
2023-03-15T16:11:16.362Z,4.10
2023-03-15T16:13:45.897Z,4.00
2023-03-15T16:16:17.816Z,3.90
2023-03-15T16:18:45.351Z,3.90
2023-03-15T16:21:44.233Z,3.80
2023-03-15T16:24:22.227Z,3.80
2023-03-15T16:26:50.050Z,3.70
2023-03-15T16:29:23.165Z,3.70
2023-03-15T16:31:51.258Z,3.60
2023-03-15T16:34:19.809Z,3.50
2023-03-15T16:36:54.877Z,3.50
2023-03-15T16:39:22.594Z,3.50
2023-03-15T16:41:49.572Z,3.50
2023-03-15T16:44:18.154Z,3.50
2023-03-15T16:46:46.069Z,3.40
2023-03-15T16:49:15.436Z,3.40
2023-03-15T16:51:48.652Z,3.50
2023-03-15T16:54:24.560Z,3.60
2023-03-15T16:56:57.938Z,3.60
2023-03-15T16:59:24.869Z,3.50
2023-03-15T17:01:51.853Z,3.30
2023-03-15T17:04:19.110Z,3.20
2023-03-15T17:06:46.957Z,3.20
2023-03-15T17:09:23.388Z,3.10
2023-03-15T17:11:56.011Z,3.00
2023-03-15T17:14:29.760Z,3.00
2023-03-15T17:16:56.668Z,2.90
2023-03-15T17:19:23.780Z,2.90
2023-03-15T17:21:52.336Z,2.90
2023-03-15T17:24:19.467Z,2.90
2023-03-15T17:26:46.838Z,2.70
2023-03-15T17:29:16.115Z,2.60
2023-03-15T17:31:44.573Z,2.60
2023-03-15T17:34:11.673Z,2.50
2023-03-15T17:36:39.155Z,2.50
2023-03-15T17:39:07.619Z,2.40
2023-03-15T17:41:39.446Z,2.30
2023-03-15T17:44:06.997Z,2.30
2023-03-15T17:46:33.916Z,2.20
2023-03-15T17:49:02.997Z,2.20
2023-03-15T17:51:35.642Z,2.10
2023-03-15T17:54:11.038Z,2.10
2023-03-15T17:56:38.311Z,2.00
2023-03-15T17:59:05.386Z,2.00
2023-03-15T18:01:32.854Z,1.90
2023-03-15T18:04:00.027Z,1.80
2023-03-15T18:06:27.709Z,1.80
2023-03-15T18:08:54.875Z,1.80
2023-03-15T18:11:38.339Z,1.70
2023-03-15T18:14:05.545Z,1.60
2023-03-15T18:16:32.965Z,1.60
2023-03-15T18:19:00.937Z,1.50
2023-03-15T18:21:28.680Z,1.50
2023-03-15T18:23:56.255Z,1.40
2023-03-15T18:26:23.507Z,1.40
2023-03-15T18:28:51.777Z,1.30
2023-03-15T18:31:24.096Z,1.20
2023-03-15T18:33:52.162Z,1.20
2023-03-15T18:36:19.597Z,1.20
2023-03-15T18:38:46.958Z,1.10
2023-03-15T18:41:22.517Z,1.20
2023-03-15T18:43:51.617Z,1.20
2023-03-15T18:46:20.401Z,1.20
2023-03-15T18:48:47.976Z,1.20
2023-03-15T18:51:15.667Z,1.10
2023-03-15T18:53:43.949Z,1.00
2023-03-15T18:56:20.036Z,1.00
2023-03-15T18:58:48.542Z,1.10
2023-03-15T19:01:16.942Z,1.00
2023-03-15T19:03:44.114Z,1.00
2023-03-15T19:06:13.304Z,1.00
2023-03-15T19:08:41.017Z,0.90
2023-03-15T19:11:08.908Z,1.00
2023-03-15T19:13:35.796Z,1.10
2023-03-15T19:16:04.162Z,1.00
2023-03-15T19:18:32.874Z,1.00
2023-03-15T19:21:00.112Z,0.90
2023-03-15T19:23:27.641Z,0.80
2023-03-15T19:25:57.736Z,0.80
2023-03-15T19:28:24.714Z,0.80
2023-03-15T19:30:51.758Z,0.80
2023-03-15T19:33:18.845Z,0.70
2023-03-15T19:35:45.751Z,0.60
2023-03-15T19:38:12.852Z,0.50
2023-03-15T19:40:39.694Z,0.50
2023-03-15T19:43:07.019Z,0.60
2023-03-15T19:45:33.972Z,0.50
2023-03-15T19:48:01.139Z,0.40
2023-03-15T19:50:32.578Z,0.40
2023-03-15T19:52:59.915Z,0.30
2023-03-15T19:55:27.978Z,0.30
2023-03-15T19:57:56.685Z,0.30
2023-03-15T20:00:25.255Z,0.40
2023-03-15T20:02:52.330Z,0.40
2023-03-15T20:05:20.737Z,0.30
2023-03-15T20:07:50.755Z,0.20
2023-03-15T20:10:19.353Z,0.10
2023-03-15T20:12:47.349Z,0.20
2023-03-15T20:15:17.529Z,0.10
2023-03-15T20:17:44.996Z,0.10
2023-03-15T20:20:19.347Z,0.20
2023-03-15T20:22:46.567Z,0.20
2023-03-15T20:25:18.622Z,0.10
2023-03-15T20:27:45.689Z,0.10
2023-03-15T20:30:14.824Z,0.10
2023-03-15T20:32:44.039Z,0.00
2023-03-15T20:35:12.199Z,0.00
2023-03-15T20:37:40.765Z,0.00
2023-03-15T20:40:11.205Z,-0.10
2023-03-15T20:42:38.568Z,-0.10
2023-03-15T20:45:07.280Z,-0.10
2023-03-15T20:47:34.496Z,-0.20
2023-03-15T20:50:02.025Z,-0.20
2023-03-15T20:52:29.271Z,-0.20
2023-03-15T20:54:56.267Z,-0.10
2023-03-15T20:57:23.441Z,-0.10
2023-03-15T20:59:51.612Z,0.00
2023-03-15T21:02:18.788Z,0.10
2023-03-15T21:04:46.564Z,0.20
2023-03-15T21:07:13.696Z,0.20
2023-03-15T21:09:41.486Z,0.10
2023-03-15T21:12:09.208Z,0.20
2023-03-15T21:14:36.318Z,0.10
2023-03-15T21:17:03.781Z,0.00
2023-03-15T21:19:31.912Z,-0.10
2023-03-15T21:22:01.063Z,-0.10
2023-03-15T21:24:33.159Z,-0.30
2023-03-15T21:27:06.524Z,-0.30
2023-03-15T21:29:35.037Z,-0.30
2023-03-15T21:32:02.945Z,-0.40
2023-03-15T21:34:30.615Z,-0.50
2023-03-15T21:36:57.768Z,-0.50
2023-03-15T21:39:25.125Z,-0.50
2023-03-15T21:41:52.265Z,-0.30
2023-03-15T21:44:19.214Z,-0.20
2023-03-15T21:46:46.561Z,-0.20
2023-03-15T21:49:13.664Z,-0.20
2023-03-15T21:51:45.940Z,-0.30
2023-03-15T21:54:16.348Z,-0.30
2023-03-15T21:56:43.637Z,-0.40
2023-03-15T21:59:10.848Z,-0.40
2023-03-15T22:01:38.046Z,-0.50
2023-03-15T22:04:05.069Z,-0.60
2023-03-15T22:06:32.775Z,-0.70
2023-03-15T22:08:59.691Z,-0.70
2023-03-15T22:11:26.714Z,-0.60
2023-03-15T22:13:53.575Z,-0.70
2023-03-15T22:16:20.885Z,-0.70
2023-03-15T22:18:47.938Z,-0.70
2023-03-15T22:21:15.071Z,-0.70
2023-03-15T22:23:42.075Z,-0.80
2023-03-15T22:26:09.057Z,-0.80
2023-03-15T22:28:36.090Z,-0.90
2023-03-15T22:31:03.114Z,-1.00
2023-03-15T22:33:30.401Z,-1.00
2023-03-15T22:35:58.279Z,-1.00
2023-03-15T22:38:27.925Z,-1.10
2023-03-15T22:41:03.704Z,-1.00
2023-03-15T22:43:30.738Z,-0.80
2023-03-15T22:45:57.920Z,-0.70
2023-03-15T22:48:24.978Z,-0.70
2023-03-15T22:51:02.226Z,-0.80
2023-03-15T22:53:29.746Z,-0.90
2023-03-15T22:55:57.195Z,-0.90
2023-03-15T22:58:25.937Z,-1.00
2023-03-15T23:00:53.130Z,-1.10
2023-03-15T23:03:20.467Z,-1.20
2023-03-15T23:05:47.474Z,-1.30
2023-03-15T23:08:14.684Z,-1.40
2023-03-15T23:10:42.148Z,-1.50
2023-03-15T23:13:09.400Z,-1.50
2023-03-15T23:15:36.387Z,-1.50
2023-03-15T23:18:03.305Z,-1.50
2023-03-15T23:20:30.293Z,-1.50
2023-03-15T23:22:57.654Z,-1.50
2023-03-15T23:25:29.219Z,-1.50
2023-03-15T23:27:56.494Z,-1.50
2023-03-15T23:30:23.468Z,-1.50
2023-03-15T23:32:53.038Z,-1.50
2023-03-15T23:35:19.958Z,-1.50
2023-03-15T23:37:46.994Z,-1.50
2023-03-15T23:40:15.791Z,-1.20
2023-03-15T23:42:44.353Z,-1.20
2023-03-15T23:45:12.340Z,-1.30
2023-03-15T23:47:39.575Z,-1.30
2023-03-15T23:50:08.170Z,-1.30
2023-03-15T23:52:36.378Z,-1.40
2023-03-15T23:55:03.358Z,-1.50
2023-03-15T23:57:30.359Z,-1.50
2023-03-15T23:59:57.233Z,-1.40
